createdAt,value
2022-10-23T00:02:02.580Z,92.80
2022-10-23T00:04:29.622Z,92.80
2022-10-23T00:06:56.425Z,92.90
2022-10-23T00:09:24.107Z,93.00
2022-10-23T00:11:51.340Z,93.00
2022-10-23T00:14:23.031Z,93.00
2022-10-23T00:16:50.106Z,93.00
2022-10-23T00:19:17.018Z,93.00
2022-10-23T00:21:43.990Z,93.00
2022-10-23T00:24:10.889Z,93.30
2022-10-23T00:26:40.783Z,93.00
2022-10-23T00:29:08.042Z,93.00
2022-10-23T00:31:34.955Z,92.90
2022-10-23T00:34:01.907Z,93.10
2022-10-23T00:36:28.803Z,93.00
2022-10-23T00:38:55.797Z,92.90
2022-10-23T00:41:25.051Z,92.80
2022-10-23T00:44:01.173Z,93.00
2022-10-23T00:46:28.250Z,93.00
2022-10-23T00:48:55.343Z,93.00
2022-10-23T00:51:22.302Z,93.10
2022-10-23T00:54:01.061Z,93.00
2022-10-23T00:56:38.351Z,93.10
2022-10-23T00:59:05.314Z,93.10
2022-10-23T01:01:32.374Z,93.10
2022-10-23T01:03:59.406Z,93.20
2022-10-23T01:06:53.006Z,93.20
2022-10-23T01:09:39.407Z,93.30
2022-10-23T01:12:34.672Z,93.30
2022-10-23T01:15:02.044Z,93.20
2022-10-23T01:17:56.461Z,93.20
2022-10-23T01:20:27.574Z,93.30
2022-10-23T01:23:18.933Z,93.10
2022-10-23T01:25:52.159Z,93.30
2022-10-23T01:28:26.251Z,93.40
2022-10-23T01:30:53.127Z,93.50
2022-10-23T01:33:32.202Z,93.40
2022-10-23T01:36:04.534Z,93.60
2022-10-23T01:38:56.041Z,93.50
2022-10-23T01:41:41.935Z,93.50
2022-10-23T01:44:16.758Z,93.60
2022-10-23T01:46:44.201Z,93.50
2022-10-23T01:49:11.976Z,93.50
2022-10-23T01:51:40.471Z,93.40
2022-10-23T01:54:10.394Z,93.30
2022-10-23T01:56:39.074Z,93.30
2022-10-23T01:59:08.765Z,93.40
2022-10-23T02:01:39.572Z,93.30
2022-10-23T02:04:06.818Z,93.50
2022-10-23T02:06:33.671Z,93.40
2022-10-23T02:09:00.497Z,93.40
2022-10-23T02:11:27.711Z,93.50
2022-10-23T02:14:25.642Z,93.30
2022-10-23T02:16:54.386Z,93.50
2022-10-23T02:19:32.606Z,93.50
2022-10-23T02:22:36.250Z,93.50
2022-10-23T02:25:13.743Z,93.60
2022-10-23T02:27:47.266Z,93.50
2022-10-23T02:30:16.318Z,93.60
2022-10-23T02:32:50.673Z,93.60
2022-10-23T02:35:18.947Z,93.70
2022-10-23T02:37:57.442Z,93.70
2022-10-23T02:40:53.017Z,93.90
2022-10-23T02:43:24.824Z,93.80
2022-10-23T02:46:14.505Z,93.70
2022-10-23T02:49:10.334Z,93.60
2022-10-23T02:51:48.141Z,93.60
2022-10-23T02:54:29.065Z,93.70
2022-10-23T02:57:39.666Z,93.50
2022-10-23T03:00:13.793Z,93.50
2022-10-23T03:02:44.248Z,93.70
2022-10-23T03:05:17.795Z,93.70
2022-10-23T03:07:44.957Z,93.60
2022-10-23T03:10:12.110Z,93.60
2022-10-23T03:12:39.244Z,93.70
2022-10-23T03:15:07.509Z,93.70
2022-10-23T03:17:34.547Z,93.80
2022-10-23T03:20:02.285Z,93.80
2022-10-23T03:22:29.207Z,93.90
2022-10-23T03:24:56.394Z,93.80
2022-10-23T03:27:23.308Z,93.90
2022-10-23T03:29:50.233Z,93.70
2022-10-23T03:32:20.318Z,93.90
2022-10-23T03:34:47.178Z,93.90
2022-10-23T03:37:14.174Z,93.80
2022-10-23T03:39:41.066Z,93.80
2022-10-23T03:42:08.006Z,94.00
2022-10-23T03:44:35.377Z,93.80
2022-10-23T03:47:03.759Z,93.80
2022-10-23T03:49:30.702Z,93.80
2022-10-23T03:52:02.700Z,93.80
2022-10-23T03:54:30.176Z,93.80
2022-10-23T03:56:57.751Z,93.90
2022-10-23T03:59:26.186Z,93.80
2022-10-23T04:01:53.549Z,93.60
2022-10-23T04:04:20.519Z,93.70
2022-10-23T04:06:48.018Z,93.80
2022-10-23T04:09:15.155Z,93.90
2022-10-23T04:11:42.247Z,93.80
2022-10-23T04:14:11.944Z,93.90
2022-10-23T04:16:38.898Z,93.90
2022-10-23T04:19:06.361Z,93.90
2022-10-23T04:21:33.246Z,93.90
2022-10-23T04:24:01.119Z,93.90
2022-10-23T04:26:28.067Z,93.90
2022-10-23T04:28:54.942Z,93.80
2022-10-23T04:31:21.883Z,93.80
2022-10-23T04:33:49.601Z,93.80
2022-10-23T04:36:29.447Z,93.70
2022-10-23T04:38:59.054Z,93.70
2022-10-23T04:41:26.121Z,93.80
2022-10-23T04:43:53.033Z,93.60
2022-10-23T04:46:20.239Z,93.50
2022-10-23T04:48:48.653Z,93.50
2022-10-23T04:51:38.667Z,93.40
2022-10-23T04:54:13.131Z,93.30
2022-10-23T04:57:06.228Z,93.20
2022-10-23T04:59:51.829Z,93.20
2022-10-23T05:02:18.777Z,93.20
2022-10-23T05:04:51.653Z,93.20
2022-10-23T05:07:34.287Z,93.30
2022-10-23T05:10:09.667Z,93.20
2022-10-23T05:12:48.195Z,93.20
2022-10-23T05:15:15.257Z,93.10
2022-10-23T05:17:44.578Z,93.10
2022-10-23T05:20:20.069Z,93.00
2022-10-23T05:22:46.974Z,93.00
2022-10-23T05:25:14.320Z,92.90
2022-10-23T05:27:47.319Z,93.20
2022-10-23T05:30:16.879Z,92.90
2022-10-23T05:32:44.264Z,92.80
2022-10-23T05:35:13.823Z,92.80
2022-10-23T05:37:42.442Z,92.70
2022-10-23T05:40:18.391Z,92.80
2022-10-23T05:42:46.522Z,92.60
2022-10-23T05:45:19.951Z,92.70
2022-10-23T05:48:22.095Z,92.70
2022-10-23T05:51:24.776Z,92.80
2022-10-23T05:54:14.351Z,92.90
2022-10-23T05:56:47.994Z,93.20
2022-10-23T05:59:43.573Z,93.10
2022-10-23T06:02:22.158Z,93.20
2022-10-23T06:04:57.470Z,93.40
2022-10-23T06:07:29.177Z,93.30
2022-10-23T06:10:01.050Z,93.60
2022-10-23T06:12:27.954Z,93.50
2022-10-23T06:14:54.931Z,93.50
2022-10-23T06:17:29.105Z,93.40
2022-10-23T06:20:02.521Z,93.30
2022-10-23T06:22:33.964Z,92.90
2022-10-23T06:25:13.339Z,92.70
2022-10-23T06:27:40.352Z,92.70
2022-10-23T06:30:09.527Z,92.70
2022-10-23T06:32:36.437Z,92.70
2022-10-23T06:35:11.133Z,92.70
2022-10-23T06:37:38.493Z,92.70
2022-10-23T06:40:09.951Z,92.60
2022-10-23T06:42:58.474Z,92.60
2022-10-23T06:45:36.489Z,92.60
2022-10-23T06:48:12.587Z,92.60
2022-10-23T06:51:05.230Z,93.00
2022-10-23T06:53:40.655Z,93.30
2022-10-23T06:56:20.224Z,93.40
2022-10-23T06:58:47.175Z,93.60
2022-10-23T07:01:16.684Z,93.60
2022-10-23T07:03:45.185Z,93.80
2022-10-23T07:06:15.087Z,93.90
2022-10-23T07:08:42.283Z,94.00
2022-10-23T07:11:27.833Z,94.10
2022-10-23T07:13:56.854Z,94.10
2022-10-23T07:16:24.006Z,94.10
2022-10-23T07:18:58.902Z,94.20
2022-10-23T07:21:32.388Z,94.40
2022-10-23T07:24:17.073Z,94.40
2022-10-23T07:26:44.887Z,94.50
2022-10-23T07:29:12.504Z,94.50
2022-10-23T07:31:39.498Z,94.60
2022-10-23T07:34:25.147Z,94.60
2022-10-23T07:37:10.293Z,94.50
2022-10-23T07:39:37.236Z,94.60
2022-10-23T07:42:04.235Z,94.60
2022-10-23T07:44:31.238Z,94.60
2022-10-23T07:46:58.138Z,94.60
2022-10-23T07:49:25.559Z,94.60
2022-10-23T07:51:53.946Z,94.60
2022-10-23T07:54:20.998Z,94.60
2022-10-23T07:57:07.515Z,94.60
2022-10-23T07:59:42.773Z,94.60
2022-10-23T08:02:12.606Z,94.60
2022-10-23T08:04:39.751Z,94.60
2022-10-23T08:07:22.247Z,94.70
2022-10-23T08:09:51.253Z,94.60
2022-10-23T08:12:18.138Z,94.60
2022-10-23T08:14:45.035Z,94.40
2022-10-23T08:17:12.550Z,94.30
2022-10-23T08:20:03.119Z,94.30
2022-10-23T08:22:39.016Z,94.30
2022-10-23T08:25:06.307Z,94.20
2022-10-23T08:27:33.259Z,94.10
2022-10-23T08:30:00.243Z,94.00
2022-10-23T08:32:30.880Z,93.90
2022-10-23T08:34:59.678Z,93.90
2022-10-23T08:37:29.730Z,93.80
2022-10-23T08:39:56.733Z,93.80
2022-10-23T08:42:48.499Z,93.80
2022-10-23T08:45:33.335Z,93.90
2022-10-23T08:48:13.762Z,93.90
2022-10-23T08:51:26.212Z,93.90
2022-10-23T08:54:13.082Z,93.80
2022-10-23T08:56:41.802Z,93.80
2022-10-23T08:59:32.989Z,94.00
2022-10-23T09:02:09.412Z,94.20
2022-10-23T09:04:36.866Z,94.30
2022-10-23T09:07:20.418Z,94.30
2022-10-23T09:10:15.077Z,94.30
2022-10-23T09:12:41.995Z,94.40
2022-10-23T09:15:35.466Z,94.30
2022-10-23T09:18:08.086Z,94.40
2022-10-23T09:20:35.646Z,94.50
2022-10-23T09:23:07.076Z,94.50
2022-10-23T09:25:40.836Z,94.60
2022-10-23T09:28:11.597Z,94.50
2022-10-23T09:30:40.271Z,94.50
2022-10-23T09:33:20.032Z,94.50
2022-10-23T09:35:57.114Z,94.40
2022-10-23T09:38:34.120Z,94.40
2022-10-23T09:41:23.247Z,94.50
2022-10-23T09:44:08.427Z,94.50
2022-10-23T09:46:47.759Z,94.40
2022-10-23T09:49:23.778Z,94.20
2022-10-23T09:52:17.994Z,94.30
2022-10-23T09:54:46.088Z,94.20
2022-10-23T09:57:24.249Z,94.20
2022-10-23T09:59:55.694Z,94.10
2022-10-23T10:02:31.060Z,94.10
2022-10-23T10:05:29.147Z,94.00
2022-10-23T10:08:17.843Z,93.90
2022-10-23T10:10:47.925Z,93.80
2022-10-23T10:13:33.188Z,93.80
2022-10-23T10:16:23.691Z,94.00
2022-10-23T10:19:06.374Z,93.80
2022-10-23T10:22:09.207Z,93.90
2022-10-23T10:24:56.702Z,93.80
2022-10-23T10:27:50.727Z,93.90
2022-10-23T10:30:23.953Z,93.80
2022-10-23T10:33:13.106Z,94.00
2022-10-23T10:35:49.133Z,94.10
2022-10-23T10:38:42.846Z,94.10
2022-10-23T10:41:36.225Z,94.20
2022-10-23T10:44:15.380Z,94.40
2022-10-23T10:47:00.814Z,94.40
2022-10-23T10:49:43.310Z,94.40
2022-10-23T10:53:04.631Z,94.40
2022-10-23T10:55:58.377Z,94.30
2022-10-23T10:58:40.393Z,94.40
2022-10-23T11:01:26.902Z,94.40
2022-10-23T11:04:16.669Z,94.00
2022-10-23T11:06:44.870Z,94.00
2022-10-23T11:09:21.119Z,93.90
2022-10-23T11:11:48.771Z,93.80
2022-10-23T11:14:20.893Z,93.50
2022-10-23T11:16:52.020Z,93.10
2022-10-23T11:19:29.102Z,93.10
2022-10-23T11:22:08.022Z,93.00
2022-10-23T11:25:06.243Z,93.00
2022-10-23T11:27:36.182Z,92.80
2022-10-23T11:30:36.973Z,92.80
2022-10-23T11:33:11.641Z,92.00
2022-10-23T11:36:01.933Z,92.60
2022-10-23T11:38:36.094Z,91.80
2022-10-23T11:41:27.045Z,92.60
2022-10-23T11:44:04.610Z,92.30
2022-10-23T11:46:36.534Z,92.40
2022-10-23T11:49:06.021Z,92.10
2022-10-23T11:51:36.207Z,92.20
2022-10-23T11:54:16.186Z,92.40
2022-10-23T11:57:10.125Z,91.60
2022-10-23T11:59:49.949Z,91.70
2022-10-23T12:02:33.142Z,91.80
2022-10-23T12:05:25.485Z,91.80
2022-10-23T12:07:57.026Z,91.30
2022-10-23T12:10:31.494Z,90.90
2022-10-23T12:12:59.953Z,90.90
2022-10-23T12:15:27.489Z,91.10
2022-10-23T12:17:55.554Z,91.30
2022-10-23T12:20:35.877Z,91.00
2022-10-23T12:23:21.015Z,91.00
2022-10-23T12:26:06.517Z,90.50
2022-10-23T12:28:44.963Z,88.50
2022-10-23T12:31:33.888Z,88.10
2022-10-23T12:34:36.206Z,90.10
2022-10-23T12:37:24.973Z,88.90
2022-10-23T12:39:56.451Z,90.00
2022-10-23T12:42:24.880Z,90.50
2022-10-23T12:45:06.538Z,90.50
2022-10-23T12:47:33.617Z,90.30
2022-10-23T12:50:00.571Z,90.60
2022-10-23T12:52:27.530Z,90.40
2022-10-23T12:54:54.444Z,90.40
2022-10-23T12:57:26.091Z,90.40
2022-10-23T12:59:58.211Z,89.80
2022-10-23T13:02:28.335Z,88.90
2022-10-23T13:04:56.331Z,90.00
2022-10-23T13:07:28.020Z,89.00
2022-10-23T13:09:58.301Z,88.60
2022-10-23T13:12:29.723Z,88.50
2022-10-23T13:15:07.120Z,88.60
2022-10-23T13:17:42.481Z,89.20
2022-10-23T13:20:18.713Z,88.00
2022-10-23T13:22:47.125Z,86.40
2022-10-23T13:25:29.747Z,87.20
2022-10-23T13:28:35.326Z,87.00
2022-10-23T13:31:11.609Z,85.70
2022-10-23T13:33:39.706Z,86.80
2022-10-23T13:36:16.677Z,87.90
2022-10-23T13:38:45.113Z,87.60
2022-10-23T13:41:18.378Z,88.30
2022-10-23T13:43:47.905Z,88.70
2022-10-23T13:46:19.413Z,87.90
2022-10-23T13:48:46.687Z,88.30
2022-10-23T13:51:23.432Z,88.70
2022-10-23T13:53:52.359Z,87.20
2022-10-23T13:56:21.047Z,88.10
2022-10-23T13:58:48.598Z,88.10
2022-10-23T14:01:37.827Z,87.20
2022-10-23T14:04:05.394Z,87.50
2022-10-23T14:06:32.345Z,88.70
2022-10-23T14:08:59.305Z,88.00
2022-10-23T14:11:26.225Z,88.00
2022-10-23T14:13:53.105Z,87.30
2022-10-23T14:16:21.036Z,86.50
2022-10-23T14:18:48.146Z,87.00
2022-10-23T14:21:16.596Z,87.50
2022-10-23T14:23:43.488Z,87.90
2022-10-23T14:26:15.541Z,88.50
2022-10-23T14:28:42.611Z,87.40
2022-10-23T14:31:11.274Z,87.20
2022-10-23T14:33:38.319Z,86.60
2022-10-23T14:36:05.427Z,87.20
2022-10-23T14:38:32.298Z,87.90
2022-10-23T14:40:59.239Z,88.30
2022-10-23T14:43:26.145Z,87.90
2022-10-23T14:45:53.015Z,87.70
2022-10-23T14:48:19.903Z,88.20
2022-10-23T14:50:48.157Z,87.60
2022-10-23T14:53:15.376Z,87.80
2022-10-23T14:55:42.242Z,87.60
2022-10-23T14:58:09.140Z,88.00
2022-10-23T15:00:35.997Z,87.80
2022-10-23T15:03:02.959Z,88.00
2022-10-23T15:05:29.781Z,87.80
2022-10-23T15:07:57.063Z,88.10
2022-10-23T15:10:24.095Z,88.60
2022-10-23T15:12:51.087Z,88.80
2022-10-23T15:15:18.091Z,90.00
2022-10-23T15:17:45.071Z,88.60
2022-10-23T15:20:11.935Z,89.70
2022-10-23T15:22:38.841Z,89.60
2022-10-23T15:25:06.374Z,89.20
2022-10-23T15:27:33.250Z,89.00
2022-10-23T15:30:00.330Z,89.10
2022-10-23T15:32:27.239Z,89.30
2022-10-23T15:34:55.168Z,89.40
2022-10-23T15:37:22.044Z,89.30
2022-10-23T15:39:49.018Z,89.30
2022-10-23T15:42:15.930Z,90.00
2022-10-23T15:44:42.789Z,89.00
2022-10-23T15:47:09.766Z,89.50
2022-10-23T15:49:37.097Z,89.70
2022-10-23T15:52:04.934Z,90.00
2022-10-23T15:54:32.958Z,90.00
2022-10-23T15:57:00.219Z,90.10
2022-10-23T15:59:27.271Z,90.20
2022-10-23T16:01:55.592Z,90.60
2022-10-23T16:04:23.049Z,90.90
2022-10-23T16:06:50.051Z,91.20
2022-10-23T16:09:17.143Z,91.20
2022-10-23T16:11:44.147Z,91.40
2022-10-23T16:14:15.235Z,87.10
2022-10-23T16:16:42.349Z,83.40
2022-10-23T16:19:10.279Z,85.70
2022-10-23T16:21:37.260Z,88.70
2022-10-23T16:24:05.277Z,88.40
2022-10-23T16:26:32.178Z,89.40
2022-10-23T16:29:01.231Z,90.00
2022-10-23T16:31:28.373Z,90.20
2022-10-23T16:36:24.840Z,90.30
2022-10-23T16:39:24.029Z,89.30
2022-10-23T16:42:14.025Z,90.00
2022-10-23T16:44:52.022Z,90.00
2022-10-23T16:47:19.026Z,90.40
2022-10-23T16:49:45.917Z,90.10
2022-10-23T16:52:12.796Z,90.50
2022-10-23T16:54:39.669Z,90.10
2022-10-23T16:57:06.572Z,90.60
2022-10-23T16:59:33.487Z,90.50
2022-10-23T17:02:00.570Z,90.50
2022-10-23T17:04:27.485Z,91.00
2022-10-23T17:06:54.431Z,90.70
2022-10-23T17:09:21.675Z,90.60
2022-10-23T17:11:51.210Z,90.80
2022-10-23T17:14:18.763Z,91.00
2022-10-23T17:16:50.657Z,91.00
2022-10-23T17:19:44.749Z,90.80
2022-10-23T17:22:10.669Z,90.50
2022-10-23T17:24:39.183Z,90.80
2022-10-23T17:27:06.367Z,90.90
2022-10-23T17:29:33.308Z,91.10
2022-10-23T17:32:00.203Z,91.20
2022-10-23T17:34:27.113Z,91.20
2022-10-23T17:36:54.521Z,91.10
2022-10-23T17:39:26.480Z,91.10
2022-10-23T17:41:53.492Z,91.10
2022-10-23T17:44:20.536Z,91.00
2022-10-23T17:46:53.272Z,91.10
2022-10-23T17:49:20.313Z,91.10
2022-10-23T17:51:49.920Z,91.10
2022-10-23T17:54:16.826Z,91.30
2022-10-23T17:56:43.660Z,91.20
2022-10-23T17:59:13.534Z,91.20
2022-10-23T18:01:40.545Z,91.10
2022-10-23T18:04:07.725Z,91.20
2022-10-23T18:06:36.822Z,91.20
2022-10-23T18:09:04.683Z,91.10
2022-10-23T18:11:33.717Z,91.30
2022-10-23T18:14:00.875Z,91.30
2022-10-23T18:16:27.955Z,91.50
2022-10-23T18:18:55.138Z,91.40
2022-10-23T18:21:23.262Z,91.20
2022-10-23T18:23:50.249Z,91.20
2022-10-23T18:26:22.735Z,91.40
2022-10-23T18:28:50.868Z,91.50
2022-10-23T18:31:17.979Z,91.40
2022-10-23T18:33:45.016Z,91.60
2022-10-23T18:36:22.848Z,91.60
2022-10-23T18:38:49.787Z,91.70
2022-10-23T18:41:17.063Z,91.80
2022-10-23T18:43:44.911Z,91.70
2022-10-23T18:46:15.051Z,91.70
2022-10-23T18:48:42.755Z,91.80
2022-10-23T18:51:21.650Z,91.80
2022-10-23T18:53:51.611Z,91.70
2022-10-23T18:56:23.633Z,91.70
2022-10-23T18:58:51.101Z,91.80
2022-10-23T19:01:18.984Z,91.80
2022-10-23T19:03:45.996Z,91.90
2022-10-23T19:06:12.999Z,91.80
2022-10-23T19:08:41.109Z,91.80
2022-10-23T19:11:08.341Z,91.90
2022-10-23T19:13:39.102Z,91.90
2022-10-23T19:16:16.731Z,92.00
2022-10-23T19:18:48.187Z,92.00
2022-10-23T19:21:15.286Z,92.00
2022-10-23T19:23:42.267Z,92.00
2022-10-23T19:26:12.005Z,92.00
2022-10-23T19:28:40.585Z,92.00
2022-10-23T19:31:07.957Z,92.10
2022-10-23T19:33:36.232Z,92.10
2022-10-23T19:36:05.303Z,92.20
2022-10-23T19:38:32.978Z,92.40
2022-10-23T19:40:59.973Z,92.40
2022-10-23T19:43:27.010Z,92.50
2022-10-23T19:45:53.857Z,92.60
2022-10-23T19:48:20.823Z,92.90
2022-10-23T19:50:47.735Z,92.70
2022-10-23T19:53:16.913Z,92.70
2022-10-23T19:55:43.774Z,92.80
2022-10-23T19:58:10.663Z,92.70
2022-10-23T20:00:37.567Z,92.60
2022-10-23T20:03:04.622Z,92.70
2022-10-23T20:05:31.746Z,93.00
2022-10-23T20:07:58.623Z,92.80
2022-10-23T20:10:25.992Z,92.80
2022-10-23T20:12:57.029Z,92.70
2022-10-23T20:15:39.794Z,92.50
2022-10-23T20:18:06.646Z,92.70
2022-10-23T20:20:33.580Z,92.70
2022-10-23T20:23:00.476Z,92.90
2022-10-23T20:25:27.575Z,92.90
2022-10-23T20:27:54.433Z,92.90
2022-10-23T20:30:21.293Z,92.90
2022-10-23T20:32:48.183Z,92.90
2022-10-23T20:35:15.259Z,92.90
2022-10-23T20:37:42.521Z,92.90
2022-10-23T20:40:10.191Z,93.00
2022-10-23T20:42:37.090Z,93.20
2022-10-23T20:45:04.276Z,93.10
2022-10-23T20:47:31.269Z,93.10
2022-10-23T20:49:58.159Z,93.00
2022-10-23T20:52:26.330Z,93.00
2022-10-23T20:54:53.247Z,93.10
2022-10-23T20:57:21.388Z,93.10
2022-10-23T20:59:48.436Z,93.10
2022-10-23T21:02:15.380Z,93.20
2022-10-23T21:04:42.454Z,93.20
2022-10-23T21:07:10.784Z,93.30
2022-10-23T21:09:39.036Z,93.30
2022-10-23T21:12:06.669Z,93.30
2022-10-23T21:14:34.128Z,93.40
2022-10-23T21:17:01.028Z,93.40
2022-10-23T21:19:28.036Z,93.20
2022-10-23T21:21:55.254Z,93.10
2022-10-23T21:24:22.166Z,93.30
2022-10-23T21:26:49.062Z,93.40
2022-10-23T21:29:20.158Z,93.20
2022-10-23T21:31:57.992Z,92.90
2022-10-23T21:34:25.415Z,92.80
2022-10-23T21:37:12.925Z,92.90
2022-10-23T21:39:39.367Z,92.90
2022-10-23T21:42:06.266Z,93.00
2022-10-23T21:44:33.159Z,92.80
2022-10-23T21:47:00.159Z,92.80
2022-10-23T21:49:27.260Z,92.60
2022-10-23T21:51:55.149Z,92.50
2022-10-23T21:54:22.351Z,92.90
2022-10-23T21:56:50.430Z,92.30
2022-10-23T21:59:19.053Z,92.40
2022-10-23T22:01:46.740Z,92.50
2022-10-23T22:04:14.571Z,92.50
2022-10-23T22:06:42.300Z,92.70
2022-10-23T22:09:09.690Z,92.60
2022-10-23T22:11:36.600Z,92.60
2022-10-23T22:14:03.501Z,92.40
2022-10-23T22:16:30.451Z,92.70
2022-10-23T22:18:58.005Z,92.20
2022-10-23T22:21:27.219Z,92.60
2022-10-23T22:23:54.930Z,92.80
2022-10-23T22:26:23.833Z,92.80
2022-10-23T22:28:51.791Z,92.70
2022-10-23T22:31:20.090Z,92.90
2022-10-23T22:33:47.107Z,92.90
2022-10-23T22:36:14.094Z,93.00
2022-10-23T22:38:41.146Z,93.20
2022-10-23T22:41:08.089Z,92.90
2022-10-23T22:43:34.942Z,92.90
2022-10-23T22:46:06.315Z,92.70
2022-10-23T22:48:33.892Z,92.70
2022-10-23T22:51:00.719Z,92.60
2022-10-23T22:53:27.642Z,92.40
2022-10-23T22:55:54.948Z,92.30
2022-10-23T22:58:22.305Z,92.60
2022-10-23T23:00:49.371Z,92.50
2022-10-23T23:03:16.716Z,92.40
2022-10-23T23:05:44.599Z,92.40
2022-10-23T23:08:12.195Z,92.50
2022-10-23T23:10:39.123Z,92.60
2022-10-23T23:13:05.994Z,92.20
2022-10-23T23:15:32.974Z,92.20
2022-10-23T23:17:59.868Z,92.20
2022-10-23T23:20:26.699Z,92.40
2022-10-23T23:22:53.572Z,92.20
2022-10-23T23:25:20.495Z,92.20
2022-10-23T23:27:47.725Z,92.30
2022-10-23T23:30:14.557Z,92.20
2022-10-23T23:32:41.587Z,92.10
2022-10-23T23:35:08.874Z,92.20
2022-10-23T23:37:35.886Z,92.20
2022-10-23T23:40:02.766Z,91.90
2022-10-23T23:42:29.961Z,92.00
2022-10-23T23:45:10.048Z,91.90
2022-10-23T23:47:40.802Z,91.70
2022-10-23T23:50:08.687Z,91.80
2022-10-23T23:52:35.653Z,92.00
2022-10-23T23:55:02.494Z,92.30
2022-10-23T23:57:29.358Z,92.20
2022-10-23T23:59:56.376Z,91.90
